Time;durP1;ratioP1;P1;durP2;ratioP2;P2;SDS_P1;SDS_P2;PMS_P1;PMS_P2;Temp;Humidity;BMP_temperature;BMP_pressure;BME280_temperature;BME280_humidity;BME280_pressure;Samples;Min_cycle;Max_cycle;Signal;HPM_P1;HPM_P2
2020/12/26 00:00:49;;;;;;;;;;;;;;;27.39;28.28;100253.97;5056935;28;843;-44
2020/12/26 00:03:14;;;;;;;;;;;;;;;27.20;28.54;100259.03;5057225;28;1910;-46
2020/12/26 00:05:40;;;;;;;;;;;;;;;27.22;28.50;100264.22;5056340;28;931;-36
2020/12/26 00:08:05;;;;;;;;;;;;;;;27.20;28.39;100264.44;5056485;28;826;-43
2020/12/26 00:10:31;;;;;;;;;;;;;;;27.17;28.55;100261.28;5056629;28;808;-39
2020/12/26 00:12:56;;;;;;;;;;;;;;;27.20;28.35;100259.03;5056359;28;898;-42
2020/12/26 00:15:21;;;;;;;;;;;;;;;27.12;28.64;100259.16;5056815;28;756;-36
2020/12/26 00:17:47;;;;;;;;;;;;;;;27.12;28.67;100265.41;5056436;28;757;-41
2020/12/26 00:20:12;;;;;;;;;;;;;;;27.04;28.81;100273.66;5056189;28;1325;-44
2020/12/26 00:22:37;;;;;;;;;;;;;;;27.06;28.86;100273.47;5056472;28;2007;-39
2020/12/26 00:25:02;;;;;;;;;;;;;;;27.01;28.75;100271.28;5056321;28;800;-44
2020/12/26 00:27:28;;;;;;;;;;;;;;;26.96;28.77;100271.88;5056871;28;843;-44
2020/12/26 00:29:53;;;;;;;;;;;;;;;26.90;29.02;100273.50;5056773;28;751;-45
2020/12/26 00:32:20;;;;;;;;;;;;;;;26.89;29.01;100266.41;5056248;28;831;-44
2020/12/26 00:34:45;;;;;;;;;;;;;;;26.93;29.13;100271.41;5056392;28;792;-44
2020/12/26 00:37:10;;;;;;;;;;;;;;;26.85;28.99;100261.59;5056248;28;963;-45
2020/12/26 00:39:36;;;;;;;;;;;;;;;26.86;29.09;100255.19;5056180;28;757;-45
2020/12/26 00:42:01;;;;;;;;;;;;;;;26.81;29.12;100265.72;5056052;28;1961;-45
2020/12/26 00:44:26;;;;;;;;;;;;;;;26.76;29.26;100255.50;5064471;28;1179;-45
2020/12/26 00:46:52;;;;;;;;;;;;;;;26.78;29.38;100261.53;5076220;28;807;-45
2020/12/26 00:49:17;;;;;;;;;;;;;;;26.81;29.36;100257.63;5076676;28;835;-42
2020/12/26 00:51:46;;;;;;;;;;;;;;;26.72;29.30;100262.31;5060254;28;951;-45
2020/12/26 00:54:11;;;;;;;;;;;;;;;26.72;29.48;100265.00;5038036;28;1315;-44
2020/12/26 00:56:36;;;;;;;;;;;;;;;26.36;30.39;100285.59;5056311;28;800;-36
2020/12/26 00:59:01;;;;;;;;;;;;;;;27.31;28.56;100278.44;5055976;28;808;-45
2020/12/26 01:01:27;;;;;;;;;;;;;;;27.41;28.34;100278.91;5056112;28;1981;-45
2020/12/26 01:03:52;;;;;;;;;;;;;;;27.32;28.43;100277.41;5056141;28;803;-45
2020/12/26 01:06:17;;;;;;;;;;;;;;;26.90;29.20;100294.25;5055595;28;975;-40
2020/12/26 01:08:43;;;;;;;;;;;;;;;26.72;29.54;100289.28;5059842;28;816;-45
2020/12/26 01:11:08;;;;;;;;;;;;;;;27.19;28.75;100292.47;5059843;28;808;-43
2020/12/26 01:13:33;;;;;;;;;;;;;;;27.25;28.68;100289.00;5059953;28;803;-37
2020/12/26 01:15:59;;;;;;;;;;;;;;;26.88;29.34;100277.41;5060119;28;752;-44
2020/12/26 01:18:24;;;;;;;;;;;;;;;26.23;30.60;100284.34;5060107;28;1230;-45
2020/12/26 01:20:49;;;;;;;;;;;;;;;27.26;28.90;100287.94;5059424;28;1006;-42
2020/12/26 01:23:15;;;;;;;;;;;;;;;27.59;28.06;100288.41;5059784;28;1910;-42
2020/12/26 01:25:40;;;;;;;;;;;;;;;27.48;28.37;100287.91;5060242;28;811;-34
2020/12/26 01:28:05;;;;;;;;;;;;;;;27.32;28.87;100286.34;5059786;28;815;-41
2020/12/26 01:30:30;;;;;;;;;;;;;;;27.55;28.83;100285.25;5059418;28;800;-39
2020/12/26 01:32:56;;;;;;;;;;;;;;;28.13;27.23;100294.13;5059648;28;799;-38
2020/12/26 01:35:21;;;;;;;;;;;;;;;27.99;27.52;100290.53;5059330;28;955;-42
2020/12/26 01:37:46;;;;;;;;;;;;;;;27.66;28.61;100289.25;5069575;28;876;-41
2020/12/26 01:40:11;;;;;;;;;;;;;;;28.51;27.12;100294.72;5079570;28;834;-42
2020/12/26 01:42:37;;;;;;;;;;;;;;;28.92;26.77;100301.88;5079099;28;1961;-41
2020/12/26 01:45:03;;;;;;;;;;;;;;;29.21;26.01;100294.41;5079573;28;1195;-42
2020/12/26 01:47:28;;;;;;;;;;;;;;;29.25;26.22;100297.53;5079521;28;716;-42
2020/12/26 01:49:54;;;;;;;;;;;;;;;29.42;25.86;100299.84;5078635;28;975;-40
2020/12/26 01:52:19;;;;;;;;;;;;;;;29.56;25.78;100309.59;5041297;28;1404;-41
2020/12/26 01:54:44;;;;;;;;;;;;;;;29.76;25.54;100305.25;5059109;28;843;-41
2020/12/26 01:57:10;;;;;;;;;;;;;;;29.85;25.23;100308.53;5059324;28;799;-39
2020/12/26 01:59:35;;;;;;;;;;;;;;;29.85;25.13;100311.25;5059364;28;810;-40
2020/12/26 02:02:00;;;;;;;;;;;;;;;29.76;25.45;100308.75;5058872;28;1902;-42
2020/12/26 02:04:25;;;;;;;;;;;;;;;29.35;25.93;100313.38;5041166;28;1485;-37
2020/12/26 02:06:54;;;;;;;;;;;;;;;29.55;25.98;100310.66;5059067;28;947;-42
2020/12/26 02:09:20;;;;;;;;;;;;;;;29.84;25.48;100321.28;5041036;28;765;-40
2020/12/26 02:11:45;;;;;;;;;;;;;;;29.90;24.93;100319.59;5058855;28;835;-42
2020/12/26 02:14:10;;;;;;;;;;;;;;;29.45;25.94;100304.81;5058998;28;796;-39
2020/12/26 02:16:45;;;;;;;;;;;;;;;29.40;25.89;100315.47;5058618;28;764;-37
2020/12/26 02:19:11;;;;;;;;;;;;;;;29.80;25.74;100322.72;5058599;28;1051;-41
2020/12/26 02:21:36;;;;;;;;;;;;;;;29.96;25.23;100320.63;5058391;28;1922;-42
2020/12/26 02:24:01;;;;;;;;;;;;;;;30.12;25.37;100322.88;5058622;28;787;-40
2020/12/26 02:26:29;;;;;;;;;;;;;;;30.02;24.94;100319.75;5058752;28;751;-42
2020/12/26 02:28:55;;;;;;;;;;;;;;;29.61;25.50;100321.75;5059003;28;831;-43
2020/12/26 02:31:20;;;;;;;;;;;;;;;29.53;25.80;100322.78;5058717;28;808;-44
2020/12/26 02:33:46;;;;;;;;;;;;;;;29.94;25.56;100329.81;5058710;28;780;-44
2020/12/26 02:36:11;;;;;;;;;;;;;;;30.08;25.27;100335.19;5058044;28;963;-44
2020/12/26 02:38:36;;;;;;;;;;;;;;;30.15;24.95;100338.72;5058410;28;799;-40
2020/12/26 02:41:01;;;;;;;;;;;;;;;30.09;24.75;100341.44;5058455;28;825;-43
2020/12/26 02:43:27;;;;;;;;;;;;;;;29.19;26.21;100337.16;5058887;28;1959;-43
2020/12/26 02:45:52;;;;;;;;;;;;;;;29.93;25.46;100335.41;5077832;28;723;-38
2020/12/26 02:48:18;;;;;;;;;;;;;;;30.13;25.17;100331.84;5078740;28;749;-39
2020/12/26 02:50:43;;;;;;;;;;;;;;;30.25;25.01;100351.00;5070866;28;940;-40
2020/12/26 02:53:09;;;;;;;;;;;;;;;30.37;24.57;100354.72;5058143;28;826;-43
2020/12/26 02:55:34;;;;;;;;;;;;;;;30.21;24.81;100349.78;5058584;28;898;-43
2020/12/26 02:57:59;;;;;;;;;;;;;;;29.26;26.28;100349.84;5058072;28;798;-40
2020/12/26 03:00:24;;;;;;;;;;;;;;;29.84;25.50;100344.84;5057643;28;884;-44
2020/12/26 03:02:50;;;;;;;;;;;;;;;30.27;24.75;100355.19;5058019;28;1965;-43
2020/12/26 03:05:15;;;;;;;;;;;;;;;30.42;24.61;100359.50;5057662;28;944;-42
2020/12/26 03:07:40;;;;;;;;;;;;;;;30.25;24.63;100368.13;5075991;28;839;-42
2020/12/26 03:10:06;;;;;;;;;;;;;;;29.55;25.81;100367.56;5078292;28;840;-42
2020/12/26 03:12:31;;;;;;;;;;;;;;;29.89;25.50;100370.28;5078213;28;756;-41
2020/12/26 03:14:56;;;;;;;;;;;;;;;30.15;25.19;100367.69;5077672;28;867;-39
2020/12/26 03:17:21;;;;;;;;;;;;;;;30.38;24.84;100364.53;5077904;28;830;-40
2020/12/26 03:19:47;;;;;;;;;;;;;;;30.50;24.40;100366.56;5077691;28;1083;-39
2020/12/26 03:22:12;;;;;;;;;;;;;;;30.45;24.38;100378.06;5057745;28;1922;-42
2020/12/26 03:24:37;;;;;;;;;;;;;;;29.31;26.39;100377.97;5057663;28;824;-41
2020/12/26 03:27:02;;;;;;;;;;;;;;;29.91;25.52;100384.44;5057556;28;768;-39
2020/12/26 03:29:28;;;;;;;;;;;;;;;30.36;24.81;100391.06;5056952;28;906;-39
2020/12/26 03:31:53;;;;;;;;;;;;;;;30.45;24.62;100394.34;5057402;28;803;-38
2020/12/26 03:34:18;;;;;;;;;;;;;;;30.60;24.33;100385.09;5057433;28;802;-37
2020/12/26 03:36:43;;;;;;;;;;;;;;;30.39;24.63;100382.50;5057059;28;1080;-36
2020/12/26 03:39:09;;;;;;;;;;;;;;;29.58;25.87;100383.41;5057481;28;752;-38
2020/12/26 03:41:34;;;;;;;;;;;;;;;30.24;25.06;100393.59;5057154;28;1963;-43
2020/12/26 03:43:59;;;;;;;;;;;;;;;30.43;24.94;100385.59;5062100;28;1113;-42
2020/12/26 03:46:24;;;;;;;;;;;;;;;30.62;24.50;100386.56;5077400;28;827;-36
2020/12/26 03:48:50;;;;;;;;;;;;;;;30.30;24.93;100387.31;5077185;28;802;-36
2020/12/26 03:51:15;;;;;;;;;;;;;;;29.24;26.18;100379.88;5065046;28;978;-36
2020/12/26 03:53:40;;;;;;;;;;;;;;;29.87;25.54;100391.34;5057244;28;744;-37
2020/12/26 03:56:06;;;;;;;;;;;;;;;30.28;25.05;100405.69;5056820;28;832;-36
2020/12/26 03:58:31;;;;;;;;;;;;;;;30.37;24.79;100398.16;5039248;28;843;-42
2020/12/26 04:00:57;;;;;;;;;;;;;;;30.51;24.64;100389.97;5056936;28;801;-42
2020/12/26 04:03:22;;;;;;;;;;;;;;;30.39;24.61;100396.06;5056763;28;1960;-42
2020/12/26 04:05:47;;;;;;;;;;;;;;;29.75;25.80;100399.28;5056729;28;1026;-40
2020/12/26 04:08:12;;;;;;;;;;;;;;;30.17;25.34;100404.44;5056623;28;839;-42
2020/12/26 04:10:38;;;;;;;;;;;;;;;30.38;25.13;100410.66;5056676;28;812;-37
2020/12/26 04:13:03;;;;;;;;;;;;;;;30.54;24.95;100411.25;5056559;28;832;-43
2020/12/26 04:15:28;;;;;;;;;;;;;;;29.36;22.28;100411.75;5056852;28;831;-40
2020/12/26 04:17:54;;;;;;;;;;;;;;;26.61;24.42;100422.81;5066718;28;821;-41
2020/12/26 04:20:19;;;;;;;;;;;;;;;25.49;25.50;100410.69;5071860;28;1062;-41
2020/12/26 04:22:44;;;;;;;;;;;;;;;24.92;26.15;100410.91;5066125;28;1957;-42
2020/12/26 04:25:09;;;;;;;;;;;;;;;24.61;26.73;100419.75;5076689;28;851;-42
2020/12/26 04:27:35;;;;;;;;;;;;;;;24.17;27.14;100423.75;5076405;28;871;-41
2020/12/26 04:30:00;;;;;;;;;;;;;;;24.37;27.23;100423.38;5076297;28;799;-43
2020/12/26 04:32:25;;;;;;;;;;;;;;;25.33;27.24;100421.59;5076701;28;843;-33
2020/12/26 04:34:50;;;;;;;;;;;;;;;25.46;28.52;100423.72;5076637;28;916;-35
2020/12/26 04:37:16;;;;;;;;;;;;;;;26.03;28.04;100418.84;5056033;28;991;-34
2020/12/26 04:39:41;;;;;;;;;;;;;;;26.09;27.67;100426.19;5056481;28;765;-41
2020/12/26 04:42:07;;;;;;;;;;;;;;;26.10;27.77;100432.44;5056322;28;1910;-44
2020/12/26 04:44:32;;;;;;;;;;;;;;;25.70;26.52;100424.56;5047936;28;1152;-47
2020/12/26 04:46:57;;;;;;;;;;;;;;;24.14;28.78;100443.69;5076408;28;843;-43
2020/12/26 04:49:23;;;;;;;;;;;;;;;23.67;29.03;100439.88;5058846;28;813;-48
2020/12/26 04:51:49;;;;;;;;;;;;;;;24.65;27.87;100442.63;5041479;28;1069;-40
2020/12/26 04:54:24;;;;;;;;;;;;;;;25.49;26.37;100447.59;5038560;28;811;-42
2020/12/26 04:56:51;;;;;;;;;;;;;;;25.01;27.29;100444.00;5056577;28;863;-42
2020/12/26 04:59:16;;;;;;;;;;;;;;;25.47;27.14;100446.91;5055817;28;868;-37
2020/12/26 05:01:42;;;;;;;;;;;;;;;25.85;26.71;100451.53;5038462;28;1898;-46
2020/12/26 05:04:07;;;;;;;;;;;;;;;25.17;27.23;100458.38;5056241;28;836;-43
2020/12/26 05:06:36;;;;;;;;;;;;;;;24.85;28.23;100460.19;5055471;28;963;-44
2020/12/26 05:09:01;;;;;;;;;;;;;;;24.99;28.09;100453.25;5038083;28;871;-44
2020/12/26 05:11:26;;;;;;;;;;;;;;;25.44;27.45;100462.41;5056220;28;748;-42
2020/12/26 05:13:51;;;;;;;;;;;;;;;25.53;27.52;100467.75;5055990;28;804;-44
2020/12/26 05:16:17;;;;;;;;;;;;;;;25.48;27.68;100476.38;5056034;28;737;-44
2020/12/26 05:18:42;;;;;;;;;;;;;;;25.71;27.75;100480.94;5055555;28;1278;-43
2020/12/26 05:21:07;;;;;;;;;;;;;;;25.45;28.21;100484.81;5059960;28;1002;-44
2020/12/26 05:23:35;;;;;;;;;;;;;;;25.41;28.60;100486.16;5056892;28;1977;-44
2020/12/26 05:26:00;;;;;;;;;;;;;;;25.91;27.72;100486.69;5075124;28;871;-42
2020/12/26 05:28:27;;;;;;;;;;;;;;;25.97;27.73;100484.28;5075885;28;764;-42
2020/12/26 05:30:52;;;;;;;;;;;;;;;25.79;27.92;100483.56;5075750;28;833;-42
2020/12/26 05:33:18;;;;;;;;;;;;;;;25.01;29.27;100475.44;5075300;28;1415;-46
2020/12/26 05:35:50;;;;;;;;;;;;;;;25.37;29.02;100482.16;5063625;28;1004;-46
2020/12/26 05:38:33;;;;;;;;;;;;;;;26.19;27.64;100474.50;5055653;28;891;-42
2020/12/26 05:40:59;;;;;;;;;;;;;;;26.10;27.74;100478.25;5056012;28;725;-42
2020/12/26 05:43:25;;;;;;;;;;;;;;;25.83;28.35;100486.75;5055753;28;1902;-42
2020/12/26 05:45:50;;;;;;;;;;;;;;;26.46;27.10;100498.34;5075683;28;803;-43
2020/12/26 05:48:16;;;;;;;;;;;;;;;26.49;27.24;100506.06;5088426;28;860;-41
2020/12/26 05:50:42;;;;;;;;;;;;;;;26.63;27.13;100507.09;5080741;28;827;-40
2020/12/26 05:53:07;;;;;;;;;;;;;;;25.74;28.60;100506.69;5075903;28;1165;-43
2020/12/26 05:55:36;;;;;;;;;;;;;;;26.55;27.63;100517.97;5079342;28;950;-43
2020/12/26 05:58:02;;;;;;;;;;;;;;;26.93;26.66;100517.03;5079089;28;852;-42
2020/12/26 06:00:33;;;;;;;;;;;;;;;26.90;26.82;100523.66;5079013;28;744;-38
2020/12/26 06:02:59;;;;;;;;;;;;;;;26.70;26.95;100526.06;5079381;28;1898;-38
2020/12/26 06:05:24;;;;;;;;;;;;;;;27.02;26.74;100527.59;5074134;28;959;-38
2020/12/26 06:07:49;;;;;;;;;;;;;;;27.00;26.43;100521.50;5040386;28;859;-44
2020/12/26 06:10:14;;;;;;;;;;;;;;;26.73;26.99;100525.69;5040739;28;823;-41
2020/12/26 06:12:40;;;;;;;;;;;;;;;26.53;27.44;100528.94;5058647;28;772;-46
2020/12/26 06:15:05;;;;;;;;;;;;;;;26.92;26.78;100527.00;5050529;28;879;-44
2020/12/26 06:17:31;;;;;;;;;;;;;;;27.37;26.39;100526.97;5078728;28;828;-37
2020/12/26 06:20:01;;;;;;;;;;;;;;;27.13;26.67;100534.38;5077253;28;1075;-40
2020/12/26 06:22:41;;;;;;;;;;;;;;;26.93;26.76;100535.94;5058563;28;1910;-45
2020/12/26 06:25:07;;;;;;;;;;;;;;;26.83;27.08;100545.16;5058824;28;772;-44
2020/12/26 06:27:32;;;;;;;;;;;;;;;27.32;26.32;100552.88;5040707;28;840;-39
2020/12/26 06:29:58;;;;;;;;;;;;;;;27.29;26.49;100562.19;5040561;28;765;-45
2020/12/26 06:32:23;;;;;;;;;;;;;;;26.95;26.92;100575.22;5040970;28;859;-42
2020/12/26 06:34:48;;;;;;;;;;;;;;;26.22;27.91;100564.94;5041475;28;1027;-43
2020/12/26 06:37:14;;;;;;;;;;;;;;;26.12;28.09;100579.53;5040190;28;1056;-40
2020/12/26 06:39:39;;;;;;;;;;;;;;;27.09;26.82;100572.75;5058566;28;736;-41
2020/12/26 06:42:10;;;;;;;;;;;;;;;27.15;26.79;100569.28;5057810;28;1955;-42
2020/12/26 06:44:36;;;;;;;;;;;;;;;26.90;26.95;100575.78;5068374;28;1136;-33
2020/12/26 06:47:01;;;;;;;;;;;;;;;26.86;27.01;100574.47;5078212;28;734;-39
2020/12/26 06:49:26;;;;;;;;;;;;;;;25.72;29.12;100593.09;5078746;28;795;-34
2020/12/26 06:51:52;;;;;;;;;;;;;;;26.76;27.61;100587.38;5060494;28;951;-39
2020/12/26 06:54:35;;;;;;;;;;;;;;;27.18;26.79;100592.34;5057907;28;827;-37
2020/12/26 06:57:00;;;;;;;;;;;;;;;27.16;26.69;100599.81;5058233;28;744;-39
2020/12/26 06:59:32;;;;;;;;;;;;;;;27.28;26.56;100600.19;5058412;28;803;-38
2020/12/26 07:02:04;;;;;;;;;;;;;;;27.51;26.19;100597.34;5057669;28;1961;-39
2020/12/26 07:04:33;;;;;;;;;;;;;;;26.48;27.46;100598.78;5056439;28;785;-40
2020/12/26 07:06:59;;;;;;;;;;;;;;;26.15;28.17;100597.19;5056128;28;1297;-40
2020/12/26 07:09:36;;;;;;;;;;;;;;;25.98;28.48;100607.22;5077710;28;780;-40
2020/12/26 07:12:02;;;;;;;;;;;;;;;26.59;27.39;100619.09;5077498;28;823;-40
2020/12/26 07:14:30;;;;;;;;;;;;;;;27.08;26.89;100625.03;5077661;28;792;-38
2020/12/26 07:16:56;;;;;;;;;;;;;;;27.24;26.79;100629.44;5077538;28;1414;-37
2020/12/26 07:19:22;;;;;;;;;;;;;;;27.22;27.00;100635.03;5059433;28;1282;-38
2020/12/26 07:21:54;;;;;;;;;;;;;;;27.25;26.54;100623.00;5061123;28;1914;-34
2020/12/26 07:24:46;;;;;;;;;;;;;;;26.05;28.65;100613.59;5057510;28;744;-38
2020/12/26 07:27:14;;;;;;;;;;;;;;;27.16;27.10;100610.63;5033465;28;1153;-36
2020/12/26 07:29:57;;;;;;;;;;;;;;;27.38;26.48;100603.41;5057130;28;859;-36
2020/12/26 07:32:38;;;;;;;;;;;;;;;27.17;27.21;100615.84;5057264;28;776;-34
2020/12/26 07:35:06;;;;;;;;;;;;;;;27.62;26.52;100614.94;5056755;28;1018;-39
2020/12/26 07:37:31;;;;;;;;;;;;;;;27.98;26.06;100624.94;5057668;28;744;-37
2020/12/26 07:39:57;;;;;;;;;;;;;;;27.64;26.29;100629.09;5066030;28;777;-38
2020/12/26 07:42:22;;;;;;;;;;;;;;;27.39;26.77;100641.03;5077431;28;1906;-40
2020/12/26 07:44:47;;;;;;;;;;;;;;;27.18;27.00;100636.41;5077021;28;1107;-39
2020/12/26 07:47:13;;;;;;;;;;;;;;;27.05;26.78;100653.25;5076824;28;796;-34
2020/12/26 07:49:38;;;;;;;;;;;;;;;26.55;27.48;100653.69;5058506;28;876;-34
2020/12/26 07:52:04;;;;;;;;;;;;;;;26.34;28.01;100652.50;5058398;28;924;-38
2020/12/26 07:54:29;;;;;;;;;;;;;;;26.32;28.10;100648.28;5056849;28;737;-42
2020/12/26 07:56:55;;;;;;;;;;;;;;;26.27;28.21;100651.53;5057267;28;780;-40
2020/12/26 07:59:20;;;;;;;;;;;;;;;26.20;28.40;100646.00;5039353;28;998;-39
2020/12/26 08:01:48;;;;;;;;;;;;;;;26.42;28.10;100651.63;5056525;28;1963;-39
2020/12/26 08:04:13;;;;;;;;;;;;;;;26.94;26.95;100662.63;5056765;28;823;-36
2020/12/26 08:06:39;;;;;;;;;;;;;;;26.58;27.34;100671.38;5056302;28;944;-34
2020/12/26 08:09:05;;;;;;;;;;;;;;;27.16;26.70;100680.84;5038996;28;740;-40
2020/12/26 08:11:30;;;;;;;;;;;;;;;27.49;26.38;100672.34;5059198;28;817;-35
2020/12/26 08:13:59;;;;;;;;;;;;;;;27.85;25.93;100668.88;5076586;28;855;-39
2020/12/26 08:16:25;;;;;;;;;;;;;;;28.09;25.40;100671.44;5076669;28;869;-39
2020/12/26 08:18:50;;;;;;;;;;;;;;;27.99;25.87;100666.34;5076500;28;1081;-35
2020/12/26 08:21:21;;;;;;;;;;;;;;;27.85;25.65;100670.75;5075708;28;1014;-37
2020/12/26 08:24:00;;;;;;;;;;;;;;;27.76;25.60;100680.81;5076397;28;751;-36
2020/12/26 08:26:25;;;;;;;;;;;;;;;28.17;25.30;100684.81;5076623;28;773;-41
2020/12/26 08:28:51;;;;;;;;;;;;;;;28.09;25.67;100693.06;5076235;28;831;-37
2020/12/26 08:31:18;;;;;;;;;;;;;;;27.04;26.32;100696.63;5076386;28;783;-38
2020/12/26 08:33:47;;;;;;;;;;;;;;;27.16;26.86;100680.84;5077037;28;840;-38
2020/12/26 08:36:13;;;;;;;;;;;;;;;27.55;26.25;100681.56;5064797;28;967;-35
2020/12/26 08:38:42;;;;;;;;;;;;;;;28.01;25.48;100680.47;5056255;28;755;-36
2020/12/26 08:41:07;;;;;;;;;;;;;;;28.10;25.64;100681.22;5038632;28;880;-35
2020/12/26 08:43:32;;;;;;;;;;;;;;;27.61;25.98;100681.66;5056680;28;1901;-35
2020/12/26 08:45:57;;;;;;;;;;;;;;;27.53;26.19;100679.03;5058194;28;819;-39
2020/12/26 08:48:23;;;;;;;;;;;;;;;27.73;26.07;100686.59;5076224;28;764;-38
2020/12/26 08:50:54;;;;;;;;;;;;;;;28.01;25.50;100688.59;5067521;28;955;-35
2020/12/26 08:53:20;;;;;;;;;;;;;;;28.27;25.07;100689.91;5056211;28;788;-35
2020/12/26 08:55:54;;;;;;;;;;;;;;;27.79;25.78;100690.44;5056164;28;795;-37
2020/12/26 08:58:27;;;;;;;;;;;;;;;27.70;25.97;100687.81;5056146;28;835;-35
2020/12/26 09:00:58;;;;;;;;;;;;;;;27.98;25.17;100679.00;5056230;28;830;-41
2020/12/26 09:03:24;;;;;;;;;;;;;;;27.86;25.40;100659.72;5055562;28;1910;-36
2020/12/26 09:05:49;;;;;;;;;;;;;;;27.83;25.88;100657.41;5055082;28;999;-35
2020/12/26 09:08:14;;;;;;;;;;;;;;;27.95;25.48;100670.44;5056432;28;740;-40
2020/12/26 09:10:40;;;;;;;;;;;;;;;28.04;25.71;100687.38;5055499;28;816;-35
2020/12/26 09:13:09;;;;;;;;;;;;;;;28.25;25.50;100686.56;5038269;28;955;-36
2020/12/26 09:15:49;;;;;;;;;;;;;;;28.35;25.02;100686.28;5055863;28;810;-39
2020/12/26 09:18:15;;;;;;;;;;;;;;;28.13;25.48;100682.69;5075889;28;1062;-39
2020/12/26 09:20:50;;;;;;;;;;;;;;;27.61;26.54;100694.34;5067921;28;971;-37
2020/12/26 09:23:15;;;;;;;;;;;;;;;27.24;27.29;100700.47;5055630;28;1975;-40
2020/12/26 09:25:41;;;;;;;;;;;;;;;28.02;26.00;100695.69;5054891;28;791;-35
2020/12/26 09:28:12;;;;;;;;;;;;;;;28.06;25.67;100693.44;5055796;28;1143;-37
2020/12/26 09:30:37;;;;;;;;;;;;;;;27.88;26.22;100689.28;5025088;28;789;-39
2020/12/26 09:33:03;;;;;;;;;;;;;;;28.30;25.84;100686.81;5059480;28;784;-39
2020/12/26 09:35:29;;;;;;;;;;;;;;;28.18;25.75;100680.25;5059088;28;1550;-35
2020/12/26 09:37:54;;;;;;;;;;;;;;;27.86;25.84;100670.53;5059902;28;775;-38
2020/12/26 09:40:26;;;;;;;;;;;;;;;27.20;26.98;100676.72;5059321;28;779;-38
2020/12/26 09:42:52;;;;;;;;;;;;;;;27.42;26.51;100684.94;5041837;28;1898;-38
2020/12/26 09:45:18;;;;;;;;;;;;;;;27.65;26.39;100686.66;5075162;28;1204;-35
2020/12/26 09:47:43;;;;;;;;;;;;;;;28.02;25.37;100684.88;5079291;28;776;-38
2020/12/26 09:50:08;;;;;;;;;;;;;;;27.78;25.69;100681.47;5075886;28;789;-36
2020/12/26 09:52:33;;;;;;;;;;;;;;;27.74;25.95;100682.88;5059416;28;808;-38
2020/12/26 09:54:59;;;;;;;;;;;;;;;28.22;25.18;100673.44;5059247;28;847;-34
2020/12/26 09:57:24;;;;;;;;;;;;;;;27.65;25.78;100678.56;5059381;28;820;-38
2020/12/26 09:59:49;;;;;;;;;;;;;;;27.56;26.19;100684.06;5059072;28;753;-38
2020/12/26 10:02:14;;;;;;;;;;;;;;;27.67;26.04;100687.31;5059166;28;2023;-38
2020/12/26 10:04:40;;;;;;;;;;;;;;;27.81;25.75;100685.69;5059470;28;756;-35
2020/12/26 10:07:05;;;;;;;;;;;;;;;28.15;25.13;100675.22;5059182;28;928;-36
2020/12/26 10:09:30;;;;;;;;;;;;;;;27.56;26.14;100681.38;5059086;28;906;-36
2020/12/26 10:11:55;;;;;;;;;;;;;;;27.68;26.09;100678.19;5058854;28;819;-43
2020/12/26 10:14:21;;;;;;;;;;;;;;;27.97;25.58;100671.09;5059030;28;776;-43
2020/12/26 10:16:46;;;;;;;;;;;;;;;28.08;25.33;100678.69;5059146;28;863;-45
2020/12/26 10:19:11;;;;;;;;;;;;;;;27.73;25.76;100671.22;5058970;28;1024;-43
2020/12/26 10:21:36;;;;;;;;;;;;;;;27.54;26.43;100678.03;5071831;28;1964;-42
2020/12/26 10:24:02;;;;;;;;;;;;;;;27.67;26.14;100685.47;5078739;28;748;-43
2020/12/26 10:26:27;;;;;;;;;;;;;;;27.99;25.96;100677.16;5078396;28;843;-41
2020/12/26 10:28:52;;;;;;;;;;;;;;;27.98;25.55;100678.16;5079153;28;803;-42
2020/12/26 10:31:18;;;;;;;;;;;;;;;27.70;26.03;100681.56;5078644;28;847;-41
2020/12/26 10:33:43;;;;;;;;;;;;;;;27.73;26.21;100675.78;5078979;28;759;-43
2020/12/26 10:36:08;;;;;;;;;;;;;;;28.21;25.43;100680.69;5067584;28;959;-42
2020/12/26 10:38:33;;;;;;;;;;;;;;;27.92;25.79;100684.34;5058083;28;848;-42
2020/12/26 10:40:59;;;;;;;;;;;;;;;27.46;26.68;100665.44;5057895;28;843;-41
2020/12/26 10:43:24;;;;;;;;;;;;;;;27.67;26.27;100668.41;5058490;28;1914;-41
2020/12/26 10:45:49;;;;;;;;;;;;;;;27.78;26.04;100667.94;5078461;28;819;-38
2020/12/26 10:48:15;;;;;;;;;;;;;;;27.91;25.90;100667.25;5078280;28;823;-42
2020/12/26 10:50:40;;;;;;;;;;;;;;;27.98;25.99;100672.75;5071200;28;951;-39
2020/12/26 10:53:05;;;;;;;;;;;;;;;27.66;26.10;100672.97;5066145;28;881;-45
2020/12/26 10:55:30;;;;;;;;;;;;;;;27.59;26.82;100658.56;5078034;28;862;-42
2020/12/26 10:57:56;;;;;;;;;;;;;;;28.19;25.89;100658.44;5078317;28;791;-38
2020/12/26 11:00:21;;;;;;;;;;;;;;;27.86;25.82;100665.13;5078067;28;808;-40
2020/12/26 11:02:46;;;;;;;;;;;;;;;27.68;26.21;100670.06;5077043;28;1906;-42
2020/12/26 11:05:12;;;;;;;;;;;;;;;27.35;26.93;100658.66;5075063;28;990;-42
2020/12/26 11:07:37;;;;;;;;;;;;;;;27.49;26.77;100664.25;5058203;28;840;-41
2020/12/26 11:10:02;;;;;;;;;;;;;;;27.84;26.12;100669.06;5057447;28;728;-43
2020/12/26 11:12:28;;;;;;;;;;;;;;;27.72;26.03;100666.03;5058120;28;722;-42
2020/12/26 11:14:53;;;;;;;;;;;;;;;27.66;26.56;100677.56;5058036;28;753;-41
2020/12/26 11:17:18;;;;;;;;;;;;;;;28.01;26.33;100666.13;5057540;28;804;-41
2020/12/26 11:19:43;;;;;;;;;;;;;;;27.49;25.69;100664.25;5058110;28;1216;-42
2020/12/26 11:22:09;;;;;;;;;;;;;;;27.17;27.08;100652.78;5057471;28;1958;-41
2020/12/26 11:24:34;;;;;;;;;;;;;;;27.12;27.24;100659.59;5059365;28;969;-40
2020/12/26 11:26:59;;;;;;;;;;;;;;;27.23;27.27;100665.53;5078153;28;839;-37
2020/12/26 11:29:25;;;;;;;;;;;;;;;27.81;26.09;100672.16;5077373;28;827;-41
2020/12/26 11:31:50;;;;;;;;;;;;;;;27.57;26.18;100674.97;5077363;28;780;-38
2020/12/26 11:34:15;;;;;;;;;;;;;;;27.26;26.84;100657.06;5077024;28;1087;-40
2020/12/26 11:36:40;;;;;;;;;;;;;;;27.70;26.39;100673.47;5061512;28;998;-40
2020/12/26 11:39:06;;;;;;;;;;;;;;;28.20;25.59;100664.66;5064738;28;1077;-40
2020/12/26 11:41:31;;;;;;;;;;;;;;;27.85;25.73;100662.63;5077319;28;1963;-38
2020/12/26 11:43:56;;;;;;;;;;;;;;;27.38;26.32;100661.00;5077057;28;1092;-42
2020/12/26 11:46:22;;;;;;;;;;;;;;;27.19;27.08;100662.41;5076866;28;788;-40
2020/12/26 11:48:50;;;;;;;;;;;;;;;27.08;27.47;100663.69;5077154;28;744;-41
2020/12/26 11:51:16;;;;;;;;;;;;;;;27.96;25.96;100664.00;5064931;28;939;-41
2020/12/26 11:53:41;;;;;;;;;;;;;;;28.04;25.69;100663.06;5056692;28;764;-40
2020/12/26 11:56:09;;;;;;;;;;;;;;;27.58;26.48;100668.53;5057251;28;851;-39
2020/12/26 11:58:35;;;;;;;;;;;;;;;27.41;26.76;100664.34;5073964;28;861;-39
2020/12/26 12:01:00;;;;;;;;;;;;;;;27.89;26.19;100658.53;5076586;28;732;-42
2020/12/26 12:03:26;;;;;;;;;;;;;;;27.80;25.29;100656.94;5076883;28;1906;-41
2020/12/26 12:05:51;;;;;;;;;;;;;;;27.84;25.18;100650.16;5068056;28;943;-42
2020/12/26 12:08:16;;;;;;;;;;;;;;;28.04;25.07;100655.78;5056675;28;890;-41
2020/12/26 12:10:41;;;;;;;;;;;;;;;28.03;24.93;100653.28;5056844;28;787;-42
2020/12/26 12:13:09;;;;;;;;;;;;;;;27.18;25.91;100660.72;5068581;28;895;-43
2020/12/26 12:15:35;;;;;;;;;;;;;;;27.29;26.47;100662.13;5058455;28;815;-42
2020/12/26 12:18:00;;;;;;;;;;;;;;;27.75;25.66;100650.25;5076479;28;735;-42
2020/12/26 12:20:26;;;;;;;;;;;;;;;28.08;25.20;100654.34;5070950;28;1218;-41
2020/12/26 12:22:52;;;;;;;;;;;;;;;28.12;25.32;100652.13;5056580;28;1913;-41
2020/12/26 12:25:17;;;;;;;;;;;;;;;28.36;25.38;100648.22;5056541;28;755;-43
2020/12/26 12:27:42;;;;;;;;;;;;;;;27.99;25.45;100647.41;5056593;28;852;-42
2020/12/26 12:30:07;;;;;;;;;;;;;;;27.81;26.21;100650.53;5068733;28;831;-42
2020/12/26 12:32:33;;;;;;;;;;;;;;;27.93;25.82;100658.97;5076559;28;882;-41
2020/12/26 12:35:01;;;;;;;;;;;;;;;28.09;25.57;100668.72;5074116;28;977;-42
2020/12/26 12:37:26;;;;;;;;;;;;;;;27.87;26.07;100674.09;5056071;28;843;-38
2020/12/26 12:39:57;;;;;;;;;;;;;;;27.45;26.56;100671.88;5070962;28;764;-41
2020/12/26 12:42:32;;;;;;;;;;;;;;;27.79;26.15;100666.09;5076873;28;1964;-37
2020/12/26 12:44:57;;;;;;;;;;;;;;;27.49;26.48;100659.66;5075442;28;1171;-40
2020/12/26 12:47:23;;;;;;;;;;;;;;;27.71;26.31;100658.94;5073589;28;1054;-40
2020/12/26 12:49:48;;;;;;;;;;;;;;;28.04;25.93;100672.00;5075742;28;868;-41